Time;durP1;ratioP1;P1;durP2;ratioP2;P2;SDS_P1;SDS_P2;PMS_P1;PMS_P2;Temp;Humidity;BMP_temperature;BMP_pressure;BME280_temperature;BME280_humidity;BME280_pressure;Samples;Min_cycle;Max_cycle;Signal;HPM_P1;HPM_P2
2022/10/04 00:01:24;;;;;;;0.17;0.10;;;10.80;99.90;;;;;;4985239;28;20056;-89
2022/10/04 00:04:01;;;;;;;0.85;0.20;;;10.80;99.90;;;;;;5014653;28;20447;-87
2022/10/04 00:06:27;;;;;;;0.28;0.10;;;10.80;99.90;;;;;;5014755;28;20045;-87
2022/10/04 00:09:00;;;;;;;0.88;0.52;;;10.80;99.90;;;;;;4998475;28;20065;-87
2022/10/04 00:11:34;;;;;;;0.45;0.38;;;10.80;99.90;;;;;;5015160;28;20045;-87
2022/10/04 00:14:18;;;;;;;0.70;0.65;;;11.70;99.90;;;;;;5015079;28;20097;-87
2022/10/04 00:16:44;;;;;;;0.05;0.05;;;10.80;99.90;;;;;;5034016;28;20069;-88
2022/10/04 00:19:13;;;;;;;0.30;0.30;;;10.80;99.90;;;;;;5017635;28;20040;-87
2022/10/04 00:21:55;;;;;;;0.00;0.00;;;10.70;99.90;;;;;;5001512;28;20018;-86
2022/10/04 00:24:23;;;;;;;0.80;0.70;;;10.70;99.90;;;;;;5002130;28;20033;-87
2022/10/04 00:26:48;;;;;;;0.55;0.43;;;10.70;99.90;;;;;;5018685;28;20089;-87
2022/10/04 00:29:31;;;;;;;0.20;0.13;;;11.40;99.90;;;;;;5018609;28;20034;-88
2022/10/04 00:32:11;;;;;;;0.47;0.45;;;11.80;99.90;;;;;;5018627;28;20037;-87
2022/10/04 00:34:46;;;;;;;0.13;0.13;;;10.60;99.90;;;;;;5018260;28;20076;-87
2022/10/04 00:37:17;;;;;;;0.35;0.20;;;10.70;99.90;;;;;;5018239;28;20029;-87
2022/10/04 00:39:46;;;;;;;1.40;0.30;;;11.60;99.90;;;;;;5001799;28;20025;-87
2022/10/04 00:42:34;;;;;;;0.43;0.25;;;10.70;99.90;;;;;;5018208;28;20034;-87
2022/10/04 00:45:24;;;;;;;0.10;0.10;;;10.70;99.90;;;;;;5018283;28;20022;-87
2022/10/04 00:47:55;;;;;;;0.13;0.10;;;10.60;99.90;;;;;;5001941;28;20056;-87
2022/10/04 00:50:32;;;;;;;0.00;0.00;;;10.60;99.90;;;;;;5035093;28;20036;-87
2022/10/04 00:53:01;;;;;;;0.03;0.03;;;10.20;99.90;;;;;;5001600;28;20030;-87
2022/10/04 00:55:55;;;;;;;0.00;0.00;;;10.60;99.90;;;;;;5001566;28;20033;-87
2022/10/04 00:58:30;;;;;;;0.60;0.60;;;10.60;99.90;;;;;;5017852;28;20057;-88
2022/10/04 01:00:57;;;;;;;0.75;0.75;;;10.60;99.90;;;;;;5034417;28;20072;-88
2022/10/04 01:03:31;;;;;;;0.73;0.57;;;10.40;99.90;;;;;;5034906;28;20056;-88
2022/10/04 01:06:00;;;;;;;0.10;0.05;;;10.50;99.90;;;;;;5018283;28;20034;-88
2022/10/04 01:08:54;;;;;;;0.08;0.08;;;11.70;99.90;;;;;;5017958;28;20091;-88
2022/10/04 01:11:28;;;;;;;1.27;0.57;;;10.40;99.90;;;;;;5031427;28;20045;-88
2022/10/04 01:14:03;;;;;;;0.47;0.43;;;10.40;99.90;;;;;;5001454;28;20057;-89
2022/10/04 01:16:33;;;;;;;0.03;0.03;;;11.60;99.90;;;;;;5001115;28;20040;-88
2022/10/04 01:19:25;;;;;;;0.43;0.40;;;11.00;99.90;;;;;;5034432;28;20054;-88
2022/10/04 01:21:59;;;;;;;0.10;0.10;;;10.40;99.90;;;;;;5021160;28;20061;-88
2022/10/04 01:24:32;;;;;;;0.25;0.25;;;10.40;99.90;;;;;;5000396;28;20037;-87
2022/10/04 01:26:59;;;;;;;0.10;0.10;;;10.40;99.90;;;;;;4999806;28;20086;-88
2022/10/04 01:29:27;;;;;;;0.68;0.50;;;10.40;99.90;;;;;;5014958;28;20093;-88
2022/10/04 01:31:56;;;;;;;0.30;0.30;;;10.40;99.90;;;;;;4999567;28;20059;-87
2022/10/04 01:34:27;;;;;;;0.00;0.00;;;10.50;99.90;;;;;;4998618;28;20049;-88
2022/10/04 01:36:56;;;;;;;3.35;0.40;;;10.50;99.90;;;;;;5015682;28;20034;-88
2022/10/04 01:39:24;;;;;;;0.52;0.52;;;10.50;99.90;;;;;;5015065;28;20026;-88
2022/10/04 01:41:54;;;;;;;0.95;0.50;;;9.60;99.90;;;;;;5015522;28;20037;-87
2022/10/04 01:44:32;;;;;;;0.20;0.20;;;11.10;99.90;;;;;;5014331;28;20046;-88
2022/10/04 01:47:02;;;;;;;0.43;0.43;;;10.50;99.90;;;;;;4997964;28;20033;-88
2022/10/04 01:49:33;;;;;;;0.30;0.30;;;10.40;99.90;;;;;;4999070;28;20058;-88
2022/10/04 01:52:07;;;;;;;5.10;1.20;;;9.30;99.90;;;;;;5032894;28;20042;-87
2022/10/04 01:54:57;;;;;;;0.13;0.10;;;11.10;99.90;;;;;;4998921;28;20130;-88
2022/10/04 01:57:29;;;;;;;2.75;1.40;;;10.40;99.90;;;;;;5031424;28;20045;-87
2022/10/04 02:00:11;;;;;;;0.05;0.05;;;11.50;99.90;;;;;;5094455;23;20316;-84
2022/10/04 02:02:51;;;;;;;3.70;0.75;;;10.40;99.90;;;;;;4930194;29;20043;-84
2022/10/04 02:05:26;;;;;;;0.00;0.00;;;10.30;99.90;;;;;;4966273;29;20055;-83
2022/10/04 02:07:54;;;;;;;0.47;0.47;;;11.00;99.90;;;;;;4956535;29;20066;-84
2022/10/04 02:10:22;;;;;;;0.10;0.10;;;10.40;99.90;;;;;;4990971;28;20045;-83
2022/10/04 02:12:51;;;;;;;0.40;0.28;;;10.40;99.90;;;;;;4968429;29;20100;-84
2022/10/04 02:15:19;;;;;;;0.55;0.43;;;9.90;99.90;;;;;;4957806;29;20091;-84
2022/10/04 02:17:46;;;;;;;3.03;0.43;;;10.90;99.90;;;;;;4974488;28;20054;-84
2022/10/04 02:20:24;;;;;;;0.95;0.63;;;10.20;99.90;;;;;;4941890;29;20028;-84
2022/10/04 02:22:58;;;;;;;1.30;1.13;;;9.20;99.90;;;;;;4957212;29;20062;-84
2022/10/04 02:25:25;;;;;;;0.15;0.15;;;10.80;99.90;;;;;;4974277;28;20059;-84
2022/10/04 02:27:54;;;;;;;0.10;0.08;;;10.10;99.90;;;;;;4957702;29;20054;-84
2022/10/04 02:30:21;;;;;;;0.10;0.10;;;10.00;99.90;;;;;;4974373;28;20032;-84
2022/10/04 02:32:59;;;;;;;0.65;0.63;;;9.90;99.90;;;;;;4974353;28;20091;-84
2022/10/04 02:35:41;;;;;;;0.25;0.20;;;11.10;99.90;;;;;;4974108;28;20038;-84
2022/10/04 02:38:22;;;;;;;0.52;0.52;;;9.90;99.90;;;;;;4973832;28;20043;-84
2022/10/04 02:40:52;;;;;;;1.08;0.55;;;10.70;99.90;;;;;;4956778;29;20070;-84
2022/10/04 02:43:24;;;;;;;0.45;0.43;;;9.70;99.90;;;;;;4957191;28;20039;-84
2022/10/04 02:45:54;;;;;;;0.30;0.25;;;9.80;99.90;;;;;;4975008;28;20102;-84
2022/10/04 02:48:39;;;;;;;0.75;0.57;;;9.70;99.90;;;;;;4974591;28;20051;-84
2022/10/04 02:51:24;;;;;;;0.10;0.10;;;9.60;99.90;;;;;;4958389;28;20050;-84
2022/10/04 02:54:08;;;;;;;0.57;0.52;;;9.60;99.90;;;;;;4974429;28;20027;-85
2022/10/04 02:56:36;;;;;;;0.05;0.03;;;9.50;99.90;;;;;;4974740;28;20027;-87
2022/10/04 02:59:04;;;;;;;0.30;0.30;;;10.60;99.90;;;;;;4973883;28;20031;-87
2022/10/04 03:01:47;;;;;;;0.90;0.85;;;9.90;99.90;;;;;;4956712;29;20044;-86
2022/10/04 03:04:14;;;;;;;0.50;0.32;;;10.00;99.90;;;;;;4956386;28;20043;-86
2022/10/04 03:06:43;;;;;;;0.10;0.10;;;9.50;99.90;;;;;;4956405;28;20031;-83
2022/10/04 03:09:09;;;;;;;1.35;0.60;;;9.90;99.90;;;;;;4964744;28;20083;-84
2022/10/04 03:11:39;;;;;;;0.13;0.13;;;9.50;99.90;;;;;;4972867;28;20051;-83
2022/10/04 03:14:13;;;;;;;0.43;0.43;;;9.60;99.90;;;;;;4956136;29;20039;-84
2022/10/04 03:16:43;;;;;;;0.13;0.10;;;10.00;99.90;;;;;;4940605;29;20043;-84
2022/10/04 03:19:14;;;;;;;1.77;0.65;;;10.70;99.90;;;;;;4971839;28;20047;-84
2022/10/04 03:21:43;;;;;;;0.10;0.05;;;9.80;99.90;;;;;;4973324;28;20047;-84
2022/10/04 03:24:16;;;;;;;0.22;0.22;;;9.80;99.90;;;;;;4956702;28;20043;-85
2022/10/04 03:26:49;;;;;;;0.40;0.40;;;10.40;99.90;;;;;;4940523;29;20099;-84
2022/10/04 03:29:18;;;;;;;0.13;0.10;;;9.90;99.90;;;;;;4955583;28;20038;-86
2022/10/04 03:31:57;;;;;;;0.28;0.28;;;9.40;99.90;;;;;;4956117;28;20344;-86
2022/10/04 03:34:24;;;;;;;1.08;0.70;;;9.80;99.90;;;;;;4956321;28;20071;-85
2022/10/04 03:36:58;;;;;;;1.08;0.75;;;10.40;99.90;;;;;;4956690;28;20047;-86
2022/10/04 03:39:48;;;;;;;2.40;0.30;;;10.20;99.90;;;;;;4956352;28;20115;-84
2022/10/04 03:42:27;;;;;;;1.35;0.70;;;9.70;99.90;;;;;;4963749;28;20051;-83
2022/10/04 03:44:58;;;;;;;0.47;0.38;;;10.20;99.90;;;;;;4937255;29;20039;-84
2022/10/04 03:47:42;;;;;;;0.28;0.28;;;9.60;99.90;;;;;;4937189;28;20115;-84
2022/10/04 03:50:24;;;;;;;0.10;0.08;;;9.50;99.90;;;;;;4955170;28;20040;-85
2022/10/04 03:52:56;;;;;;;0.00;0.00;;;10.20;99.90;;;;;;4944682;28;20027;-85
2022/10/04 03:55:30;;;;;;;0.63;0.55;;;10.30;99.90;;;;;;4977432;28;20049;-85
2022/10/04 03:57:57;;;;;;;0.10;0.10;;;9.30;99.90;;;;;;4977038;28;20050;-85
2022/10/04 04:00:22;;;;;;;6.95;1.33;;;10.50;99.90;;;;;;4960446;28;20051;-85
2022/10/04 04:03:01;;;;;;;0.70;0.30;;;10.40;99.90;;;;;;4944432;28;20043;-85
2022/10/04 04:05:28;;;;;;;0.22;0.22;;;9.40;99.90;;;;;;4960679;28;20039;-85
2022/10/04 04:08:09;;;;;;;8.50;0.63;;;9.40;99.90;;;;;;4976962;28;20039;-84
2022/10/04 04:10:38;;;;;;;0.75;0.32;;;9.40;99.90;;;;;;4973811;29;20031;-84
2022/10/04 04:13:23;;;;;;;0.88;0.68;;;9.70;99.90;;;;;;4976092;29;20050;-84
2022/10/04 04:15:49;;;;;;;0.43;0.35;;;9.50;99.90;;;;;;4955885;28;20031;-85
2022/10/04 04:18:23;;;;;;;1.65;0.32;;;9.30;99.90;;;;;;4963877;28;20071;-86
2022/10/04 04:20:53;;;;;;;0.17;0.15;;;9.50;99.90;;;;;;4959251;28;20039;-86
2022/10/04 04:23:31;;;;;;;1.08;0.52;;;9.50;99.90;;;;;;4943918;28;20047;-86
2022/10/04 04:26:41;;;;;;;0.98;0.65;;;9.50;99.90;;;;;;4976659;28;20066;-86
2022/10/04 04:29:14;;;;;;;1.05;0.85;;;9.40;99.90;;;;;;4971026;28;20195;-86
2022/10/04 04:31:50;;;;;;;0.65;0.55;;;9.20;99.90;;;;;;4976063;28;20078;-86
2022/10/04 04:34:26;;;;;;;;;;;9.40;99.90;;;;;;4973216;29;20106;-84
2022/10/04 04:36:58;;;;;;;0.20;0.20;;;9.40;99.90;;;;;;4956738;29;19926;-85
2022/10/04 04:39:33;;;;;;;4.03;1.10;;;9.40;99.90;;;;;;4971882;28;20094;-85
2022/10/04 04:42:24;;;;;;;5.38;0.47;;;9.00;99.90;;;;;;4957928;28;20031;-85
2022/10/04 04:44:59;;;;;;;0.28;0.17;;;9.30;99.90;;;;;;4973368;29;20111;-84
2022/10/04 04:48:09;;;;;;;2.58;0.82;;;9.30;99.90;;;;;;4960554;29;20054;-84
2022/10/04 04:50:40;;;;;;;0.20;0.20;;;10.30;99.90;;;;;;4960822;29;20137;-84
2022/10/04 04:53:18;;;;;;;0.20;0.20;;;9.80;99.90;;;;;;4955785;29;20055;-84
2022/10/04 04:55:54;;;;;;;1.45;0.95;;;10.20;99.90;;;;;;4955724;29;20059;-84
2022/10/04 04:58:25;;;;;;;0.10;0.10;;;9.20;99.90;;;;;;4957237;29;20126;-85
2022/10/04 05:01:13;;;;;;;0.30;0.28;;;9.20;99.90;;;;;;4957707;28;20055;-84
2022/10/04 05:03:40;;;;;;;0.30;0.30;;;9.20;99.90;;;;;;4957863;29;20159;-84
2022/10/04 05:06:25;;;;;;;1.92;1.23;;;9.20;99.90;;;;;;4957498;29;20069;-84
2022/10/04 05:08:51;;;;;;;0.38;0.38;;;9.20;99.90;;;;;;4939174;29;20066;-84
2022/10/04 05:11:20;;;;;;;0.30;0.22;;;9.30;99.90;;;;;;4940120;28;20055;-84
2022/10/04 05:14:06;;;;;;;0.57;0.57;;;9.30;99.90;;;;;;4940486;28;20043;-85
2022/10/04 05:16:51;;;;;;;0.57;0.52;;;9.40;99.90;;;;;;4938358;29;20114;-83
2022/10/04 05:19:38;;;;;;;1.75;0.82;;;9.40;99.90;;;;;;4936537;29;20078;-84
2022/10/04 05:22:10;;;;;;;0.28;0.28;;;9.30;99.90;;;;;;4937735;29;20055;-84
2022/10/04 05:24:44;;;;;;;1.00;0.50;;;9.20;99.90;;;;;;4938210;29;20075;-85
2022/10/04 05:27:16;;;;;;;0.85;0.60;;;9.20;99.90;;;;;;4936415;29;20126;-84
2022/10/04 05:30:06;;;;;;;1.90;1.23;;;9.20;99.90;;;;;;4938702;29;20060;-83
2022/10/04 05:32:39;;;;;;;2.00;1.13;;;9.20;99.90;;;;;;4923203;29;20063;-84
2022/10/04 05:35:20;;;;;;;0.45;0.45;;;9.20;99.90;;;;;;4944408;29;20068;-85
2022/10/04 05:38:06;;;;;;;5.07;2.92;;;9.20;99.90;;;;;;4945090;29;20047;-84
2022/10/04 05:40:56;;;;;;;1.45;0.70;;;9.20;99.90;;;;;;4925363;29;20079;-84
2022/10/04 05:43:34;;;;;;;0.82;0.77;;;10.30;99.90;;;;;;4940019;29;20058;-84
2022/10/04 05:46:12;;;;;;;1.35;1.02;;;9.10;99.90;;;;;;4938971;29;20495;-84
2022/10/04 05:48:40;;;;;;;1.55;1.02;;;9.10;99.90;;;;;;4937434;29;20051;-84
2022/10/04 05:51:28;;;;;;;3.00;0.98;;;9.10;99.90;;;;;;4937339;29;20487;-83
2022/10/04 05:53:56;;;;;;;5.63;0.90;;;9.10;99.90;;;;;;4918002;29;20111;-82
2022/10/04 05:56:22;;;;;;;0.32;0.32;;;8.90;99.90;;;;;;4934182;29;20075;-83
2022/10/04 05:59:19;;;;;;;0.70;0.70;;;8.90;99.90;;;;;;4936878;29;20617;-84
2022/10/04 06:02:07;;;;;;;2.08;1.42;;;8.90;99.90;;;;;;4900724;29;20079;-83
2022/10/04 06:04:58;;;;;;;1.00;0.85;;;9.00;99.90;;;;;;4916349;29;20515;-84
2022/10/04 06:07:37;;;;;;;0.43;0.35;;;9.00;99.90;;;;;;4917183;29;20095;-83
2022/10/04 06:10:44;;;;;;;0.55;0.47;;;9.00;99.90;;;;;;4916266;29;20055;-84
2022/10/04 06:13:50;;;;;;;2.55;1.38;;;9.00;99.90;;;;;;4861108;29;20069;-84
2022/10/04 06:17:08;;;;;;;0.80;0.77;;;9.00;99.90;;;;;;4882903;29;20059;-83
2022/10/04 06:20:00;;;;;;;1.08;0.35;;;9.00;99.90;;;;;;4878796;29;20064;-84
2022/10/04 06:22:26;;;;;;;1.15;1.05;;;9.00;99.90;;;;;;4914802;29;20094;-84
2022/10/04 06:25:02;;;;;;;0.82;0.77;;;9.90;99.90;;;;;;4897782;29;20079;-83
2022/10/04 06:27:40;;;;;;;1.55;0.82;;;8.40;99.90;;;;;;4898444;29;20502;-84
2022/10/04 06:30:19;;;;;;;1.13;1.13;;;9.10;99.90;;;;;;4915401;29;20098;-84
2022/10/04 06:33:12;;;;;;;1.88;1.20;;;9.10;99.90;;;;;;4915279;29;20052;-83
2022/10/04 06:36:02;;;;;;;0.45;0.45;;;9.10;99.90;;;;;;4897201;29;20073;-83
2022/10/04 06:38:48;;;;;;;1.60;1.50;;;9.20;99.90;;;;;;4913912;29;20075;-84
2022/10/04 06:41:34;;;;;;;1.05;0.98;;;9.30;99.90;;;;;;4913668;29;20107;-84
2022/10/04 06:44:27;;;;;;;0.35;0.35;;;8.40;99.90;;;;;;4896790;29;20060;-84
2022/10/04 06:47:24;;;;;;;0.98;0.82;;;9.50;99.90;;;;;;4896102;29;20064;-84
2022/10/04 06:50:00;;;;;;;1.48;1.38;;;9.60;99.90;;;;;;4915012;29;20159;-84
2022/10/04 06:52:38;;;;;;;0.40;0.30;;;9.70;99.90;;;;;;4915075;29;20080;-84
2022/10/04 06:55:06;;;;;;;0.45;0.45;;;9.80;99.90;;;;;;4933212;29;20122;-83
2022/10/04 06:58:07;;;;;;;0.75;0.70;;;9.90;99.90;;;;;;4932072;29;20431;-83
2022/10/04 07:00:44;;;;;;;1.50;1.00;;;10.00;99.90;;;;;;4945975;28;20055;-84
2022/10/04 07:03:22;;;;;;;0.68;0.68;;;10.10;99.90;;;;;;4952448;29;20059;-83
2022/10/04 07:05:54;;;;;;;1.95;0.88;;;10.10;99.90;;;;;;4935313;29;20133;-83
2022/10/04 07:08:38;;;;;;;2.75;2.22;;;11.30;99.90;;;;;;4936335;29;20050;-84
2022/10/04 07:11:13;;;;;;;5.30;0.68;;;10.30;99.90;;;;;;4952293;29;20062;-84
2022/10/04 07:13:44;;;;;;;1.00;0.90;;;10.40;99.90;;;;;;4937456;29;20179;-83
2022/10/04 07:16:16;;;;;;;0.98;0.75;;;10.40;99.90;;;;;;4934670;29;20409;-84
2022/10/04 07:18:45;;;;;;;0.68;0.57;;;11.30;99.90;;;;;;4936023;29;20090;-84
2022/10/04 07:21:14;;;;;;;0.40;0.30;;;10.50;99.90;;;;;;4952332;29;20043;-83
2022/10/04 07:23:52;;;;;;;1.55;1.40;;;10.60;99.90;;;;;;4951761;29;20166;-84
2022/10/04 07:26:38;;;;;;;0.35;0.35;;;10.70;99.90;;;;;;4951664;28;20914;-83
2022/10/04 07:29:21;;;;;;;1.73;1.63;;;10.80;99.90;;;;;;4946337;29;20050;-83
2022/10/04 07:32:20;;;;;;;2.55;1.58;;;11.50;99.90;;;;;;4953436;29;20055;-83
2022/10/04 07:35:00;;;;;;;1.20;0.60;;;11.10;99.90;;;;;;4950953;29;20070;-84
2022/10/04 07:37:29;;;;;;;0.93;0.90;;;11.20;99.90;;;;;;4934645;29;20058;-83
2022/10/04 07:40:28;;;;;;;1.17;0.93;;;12.10;99.90;;;;;;4935519;29;20143;-83
2022/10/04 07:43:20;;;;;;;0.65;0.40;;;11.60;99.90;;;;;;4951110;29;20588;-84
2022/10/04 07:45:48;;;;;;;3.38;1.23;;;11.80;99.90;;;;;;4933648;29;20122;-83
2022/10/04 07:48:22;;;;;;;0.32;0.32;;;11.80;99.90;;;;;;4950876;29;20273;-83
2022/10/04 07:51:18;;;;;;;1.33;1.17;;;11.90;99.90;;;;;;4951756;29;20126;-83
2022/10/04 07:53:59;;;;;;;5.03;1.03;;;12.10;99.90;;;;;;4950277;29;20109;-83
2022/10/04 07:56:30;;;;;;;1.35;1.13;;;12.40;99.90;;;;;;4935017;29;20372;-83
2022/10/04 07:59:18;;;;;;;0.43;0.43;;;12.70;99.90;;;;;;4949940;28;20051;-83
2022/10/04 08:02:06;;;;;;;5.53;1.27;;;12.90;99.90;;;;;;4933804;29;20051;-82
2022/10/04 08:04:52;;;;;;;1.98;1.02;;;13.00;99.90;;;;;;4951071;29;20027;-83
2022/10/04 08:07:53;;;;;;;3.67;1.95;;;14.30;99.90;;;;;;4920277;29;20066;-83
2022/10/04 08:10:31;;;;;;;1.08;0.98;;;13.10;99.90;;;;;;4953097;29;20142;-83
2022/10/04 08:13:25;;;;;;;1.17;1.08;;;13.60;99.90;;;;;;4917892;29;20413;-83
2022/10/04 08:15:52;;;;;;;7.47;2.10;;;13.20;99.90;;;;;;4952819;29;20463;-83
2022/10/04 08:18:21;;;;;;;1.83;1.05;;;13.10;99.90;;;;;;4951745;29;20150;-83
2022/10/04 08:21:02;;;;;;;0.73;0.60;;;13.00;79.80;;;;;;4951403;29;20130;-83
2022/10/04 08:23:46;;;;;;;1.70;1.00;;;12.90;94.20;;;;;;4932682;29;20061;-83
2022/10/04 08:26:51;;;;;;;0.28;0.13;;;12.60;99.90;;;;;;4955736;29;20039;-83
2022/10/04 08:29:46;;;;;;;2.17;0.98;;;12.60;99.90;;;;;;4952978;29;20051;-83
2022/10/04 08:32:36;;;;;;;1.45;1.17;;;12.50;99.90;;;;;;4949984;29;20873;-83
2022/10/04 08:35:24;;;;;;;4.30;1.48;;;12.40;99.90;;;;;;4933016;29;20090;-83
2022/10/04 08:38:27;;;;;;;1.73;0.50;;;12.40;99.90;;;;;;4933889;29;20110;-83
2022/10/04 08:41:26;;;;;;;2.13;1.45;;;12.50;99.90;;;;;;4938621;29;20074;-83
2022/10/04 08:44:36;;;;;;;1.65;1.10;;;12.70;99.90;;;;;;4954207;29;20081;-83
2022/10/04 08:47:23;;;;;;;0.57;0.30;;;12.90;99.90;;;;;;4953811;29;20059;-84
2022/10/04 08:50:07;;;;;;;;;;;13.00;99.90;;;;;;4958412;29;20110;-82
2022/10/04 08:52:51;;;;;;;0.32;0.32;;;13.20;99.90;;;;;;4956123;29;20304;-84
2022/10/04 08:55:39;;;;;;;1.20;0.57;;;13.40;98.80;;;;;;4957574;29;20058;-83
2022/10/04 08:58:15;;;;;;;1.75;1.65;;;13.60;16.20;;;;;;4937331;29;20194;-83
2022/10/04 09:00:49;;;;;;;12.88;1.38;;;13.60;1.00;;;;;;4955411;28;20063;-83
2022/10/04 09:03:49;;;;;;;0.70;0.65;;;13.80;12.60;;;;;;4954338;29;20083;-85
2022/10/04 09:06:25;;;;;;;0.50;0.50;;;13.90;1.00;;;;;;4958304;29;20082;-83
2022/10/04 09:09:21;;;;;;;1.20;0.80;;;14.10;99.90;;;;;;4958097;29;20062;-83
2022/10/04 09:12:05;;;;;;;1.02;0.77;;;14.20;99.90;;;;;;4939000;29;20059;-83
2022/10/04 09:14:40;;;;;;;1.35;0.75;;;14.20;99.90;;;;;;4938811;29;20482;-83
2022/10/04 09:17:33;;;;;;;1.45;1.17;;;14.30;99.90;;;;;;4921491;29;20051;-83
2022/10/04 09:20:19;;;;;;;1.17;1.08;;;14.50;99.90;;;;;;4937341;29;20043;-84
2022/10/04 09:22:55;;;;;;;1.60;0.87;;;14.50;99.90;;;;;;4943342;29;20063;-84
2022/10/04 09:25:45;;;;;;;0.80;0.50;;;14.60;83.30;;;;;;4956250;29;20286;-83
2022/10/04 09:29:10;;;;;;;0.50;0.50;;;14.70;1.00;;;;;;4955810;29;20051;-83
2022/10/04 09:31:54;;;;;;;0.50;0.20;;;14.70;99.90;;;;;;4882965;29;20504;-84
2022/10/04 09:34:40;;;;;;;0.60;0.55;;;14.70;99.90;;;;;;4951339;29;20418;-83
2022/10/04 09:37:27;;;;;;;3.25;1.05;;;14.90;1.00;;;;;;4957042;29;20429;-83
2022/10/04 09:39:53;;;;;;;3.67;1.13;;;15.10;99.90;;;;;;4939488;29;20532;-83
2022/10/04 09:42:53;;;;;;;1.20;0.82;;;15.30;1.00;;;;;;4955070;29;20078;-84
2022/10/04 09:45:26;;;;;;;1.65;0.52;;;15.60;99.90;;;;;;4959096;29;20066;-83
2022/10/04 09:48:04;;;;;;;0.73;0.65;;;15.80;99.90;;;;;;4943270;29;20095;-83
2022/10/04 09:50:58;;;;;;;2.55;0.95;;;15.90;90.10;;;;;;4958029;29;20043;-83
2022/10/04 09:53:45;;;;;;;0.90;0.90;;;15.80;1.00;;;;;;4956680;29;20055;-83
2022/10/04 09:56:32;;;;;;;0.77;0.77;;;15.90;26.90;;;;;;4919041;29;20991;-83
2022/10/04 09:59:25;;;;;;;0.75;0.75;;;16.10;99.90;;;;;;4955174;28;20055;-83
2022/10/04 10:02:27;;;;;;;1.25;0.57;;;16.40;23.80;;;;;;4927766;29;20139;-83
2022/10/04 10:05:27;;;;;;;1.15;1.05;;;16.50;99.90;;;;;;4920740;29;20043;-84
2022/10/04 10:08:11;;;;;;;3.22;1.88;;;16.70;1.00;;;;;;4923418;29;20056;-84
2022/10/04 10:13:41;;;;;;;0.45;0.40;;;16.90;1.00;;;;;;4918067;29;20722;-83
2022/10/04 10:16:39;;;;;;;0.70;0.68;;;16.90;1.00;;;;;;4936439;29;20142;-83
2022/10/04 10:19:20;;;;;;;2.67;1.10;;;17.00;12.20;;;;;;4935462;29;20074;-85
2022/10/04 10:22:18;;;;;;;0.28;0.28;;;17.20;99.90;;;;;;4919439;29;20052;-83
2022/10/04 10:25:12;;;;;;;6.30;1.70;;;17.20;1.00;;;;;;4911828;29;20052;-83
2022/10/04 10:27:58;;;;;;;0.38;0.38;;;17.10;1.00;;;;;;4921209;29;20056;-84
2022/10/04 10:30:45;;;;;;;0.43;0.43;;;17.00;99.90;;;;;;4937120;29;20549;-84
2022/10/04 10:33:32;;;;;;;0.35;0.35;;;17.20;99.90;;;;;;4939946;29;20812;-84
2022/10/04 10:36:18;;;;;;;0.40;0.40;;;17.20;99.90;;;;;;4939490;29;20107;-84
2022/10/04 10:38:56;;;;;;;0.28;0.20;;;17.50;99.90;;;;;;4935252;29;20040;-84
2022/10/04 10:42:02;;;;;;;0.30;0.28;;;17.70;99.90;;;;;;4937173;29;20047;-84
2022/10/04 10:44:33;;;;;;;0.38;0.38;;;18.00;99.90;;;;;;4941671;29;20067;-84
2022/10/04 10:47:28;;;;;;;0.90;0.77;;;18.20;92.10;;;;;;4941818;29;20142;-83
2022/10/04 10:49:53;;;;;;;1.52;0.65;;;18.20;99.90;;;;;;4883403;29;20067;-84
2022/10/04 10:52:47;;;;;;;0.68;0.65;;;18.60;99.90;;;;;;4943622;29;20592;-84
2022/10/04 10:55:18;;;;;;;0.40;0.38;;;18.40;99.90;;;;;;4924158;29;20052;-84
2022/10/04 10:58:03;;;;;;;0.52;0.45;;;18.50;99.90;;;;;;4941996;29;20040;-84
2022/10/04 11:00:57;;;;;;;1.35;0.60;;;18.80;32.60;;;;;;4925670;29;20661;-85
2022/10/04 11:03:52;;;;;;;0.25;0.25;;;19.60;70.90;;;;;;4945033;29;20079;-85
2022/10/04 11:06:40;;;;;;;3.63;0.50;;;18.90;1.00;;;;;;4927729;29;20435;-84
2022/10/04 11:09:26;;;;;;;0.65;0.55;;;18.90;1.00;;;;;;4943303;29;20387;-83
2022/10/04 11:12:19;;;;;;;0.30;0.30;;;18.90;1.00;;;;;;4923816;29;20262;-83
2022/10/04 11:14:48;;;;;;;1.00;0.75;;;19.00;1.00;;;;;;4925453;29;20497;-84
2022/10/04 11:17:48;;;;;;;0.25;0.22;;;19.20;1.00;;;;;;4928111;29;20055;-84
2022/10/04 11:20:33;;;;;;;0.20;0.20;;;19.30;99.90;;;;;;4948411;29;20111;-83
2022/10/04 11:23:37;;;;;;;0.57;0.28;;;19.40;99.90;;;;;;4942394;29;20114;-84
2022/10/04 11:26:33;;;;;;;1.05;0.70;;;19.30;99.90;;;;;;4962560;29;20043;-84
2022/10/04 11:29:30;;;;;;;0.60;0.60;;;19.60;99.90;;;;;;4946976;29;20077;-84
2022/10/04 11:31:58;;;;;;;0.85;0.75;;;19.50;99.90;;;;;;4943876;29;20101;-84
2022/10/04 11:34:37;;;;;;;0.47;0.47;;;19.00;99.90;;;;;;4944889;29;20055;-84
2022/10/04 11:37:17;;;;;;;1.35;0.75;;;19.40;99.90;;;;;;4943957;29;20059;-84
2022/10/04 11:40:05;;;;;;;0.10;0.10;;;19.50;99.90;;;;;;4944460;28;20051;-84
2022/10/04 11:42:37;;;;;;;0.85;0.60;;;19.70;99.90;;;;;;4960052;28;20556;-84
2022/10/04 11:45:37;;;;;;;0.38;0.38;;;19.90;99.90;;;;;;4965119;29;20066;-85
2022/10/04 11:48:34;;;;;;;2.67;1.08;;;20.00;99.90;;;;;;4965623;29;20046;-85
2022/10/04 11:51:34;;;;;;;1.33;1.02;;;19.90;99.90;;;;;;4964739;29;20045;-85
2022/10/04 11:54:37;;;;;;;0.95;0.85;;;19.80;99.90;;;;;;4947008;28;20051;-89
2022/10/04 11:57:26;;;;;;;0.30;0.20;;;19.90;99.90;;;;;;4950351;28;20166;-87
2022/10/04 12:00:01;;;;;;;0.65;0.52;;;19.70;99.90;;;;;;4907936;29;20055;-88
2022/10/04 12:02:39;;;;;;;0.20;0.13;;;19.70;99.90;;;;;;4933902;29;20059;-87
2022/10/04 12:05:26;;;;;;;0.60;0.25;;;19.90;99.90;;;;;;4947438;29;20028;-89
2022/10/04 12:08:17;;;;;;;1.23;0.77;;;20.00;99.90;;;;;;4934244;29;20466;-90
2022/10/04 12:11:01;;;;;;;0.15;0.15;;;20.20;99.90;;;;;;4920107;29;20079;-88
2022/10/04 12:14:02;;;;;;;5.07;1.52;;;20.30;56.70;;;;;;4952400;29;20062;-88
2022/10/04 12:17:09;;;;;;;0.00;0.00;;;20.20;99.90;;;;;;4952911;29;20138;-89
2022/10/04 12:20:27;;;;;;;0.68;0.55;;;20.20;8.90;;;;;;4920686;29;20656;-88
2022/10/04 12:23:17;;;;;;;0.35;0.20;;;20.10;1.00;;;;;;4937193;29;20044;-89
2022/10/04 12:26:20;;;;;;;1.08;0.80;;;20.70;1.00;;;;;;4937363;29;20036;-88
2022/10/04 12:29:23;;;;;;;1.95;1.02;;;20.30;1.00;;;;;;4935632;29;20047;-88
2022/10/04 12:32:44;;;;;;;0.93;0.63;;;20.70;1.00;;;;;;4921017;28;20079;-88
2022/10/04 12:35:40;;;;;;;0.50;0.50;;;20.90;1.00;;;;;;4883625;28;20107;-89
2022/10/04 12:42:02;;;;;;;0.10;0.10;;;20.10;1.00;;;;;;4915140;29;20133;-89
2022/10/04 12:45:01;;;;;;;0.57;0.57;;;20.70;1.00;;;;;;4919494;29;20051;-88
2022/10/04 12:47:47;;;;;;;1.10;0.63;;;20.90;1.00;;;;;;4934646;29;20070;-87
2022/10/04 12:51:01;;;;;;;0.13;0.13;;;21.30;1.00;;;;;;4933692;29;20071;-90
2022/10/04 12:53:39;;;;;;;0.25;0.25;;;21.50;99.90;;;;;;4925470;29;20047;-89
2022/10/04 12:56:44;;;;;;;;;;;;;;;;;;;;;
2022/10/04 12:59:32;;;;;;;0.43;0.38;;;21.60;99.90;;;;;;4952335;29;20044;-87
2022/10/04 13:02:33;;;;;;;;;;;;;;;;;;;;;
2022/10/04 13:05:41;;;;;;;1.33;0.90;;;21.50;99.90;;;;;;4950208;29;20040;-89
2022/10/04 13:08:28;;;;;;;0.40;0.30;;;21.50;99.90;;;;;;4950010;29;20056;-88
2022/10/04 13:11:42;;;;;;;;;;;;;;;;;;;;;
2022/10/04 13:14:34;;;;;;;1.98;0.93;;;21.90;99.90;;;;;;4936355;29;20079;-87
2022/10/04 13:17:31;;;;;;;0.98;0.50;;;22.00;99.90;;;;;;4950287;29;20035;-88
2022/10/04 13:20:39;;;;;;;1.38;0.40;;;21.70;99.90;;;;;;4934632;29;20055;-90
2022/10/04 13:23:48;;;;;;;1.17;0.85;;;21.40;99.90;;;;;;4934957;29;20119;-88
2022/10/04 13:26:35;;;;;;;0.95;0.82;;;21.90;99.90;;;;;;4933881;29;20056;-89
2022/10/04 13:29:41;;;;;;;0.47;0.47;;;21.20;99.90;;;;;;4936072;28;20040;-89
2022/10/04 13:32:21;;;;;;;1.20;0.93;;;21.40;99.90;;;;;;4910874;29;20239;-87
2022/10/04 13:34:59;;;;;;;0.98;0.88;;;21.70;99.90;;;;;;4948908;28;20031;-88
2022/10/04 13:37:43;;;;;;;2.85;0.93;;;22.00;99.90;;;;;;4949749;28;20383;-89
2022/10/04 13:40:49;;;;;;;0.85;0.77;;;22.20;99.90;;;;;;4947328;29;20062;-88
2022/10/04 13:43:52;;;;;;;1.02;0.38;;;22.30;99.90;;;;;;4947400;23;20562;-75
2022/10/04 13:46:24;;;;;;;0.75;0.50;;;22.30;99.90;;;;;;4965967;28;20057;-76
2022/10/04 13:48:59;;;;;;;0.47;0.45;;;22.20;99.90;;;;;;4965317;28;20055;-76
2022/10/04 13:51:45;;;;;;;2.58;0.75;;;21.90;99.90;;;;;;4962481;28;20073;-75
2022/10/04 13:57:35;;;;;;;0.30;0.22;;;21.70;99.90;;;;;;4964939;28;20049;-76
2022/10/04 14:00:11;;;;;;;0.55;0.40;;;21.00;99.90;;;;;;4965359;28;20518;-75
2022/10/04 14:02:52;;;;;;;1.08;0.80;;;20.60;99.90;;;;;;4946318;29;20540;-78
2022/10/04 14:05:30;;;;;;;0.00;0.00;;;20.30;99.90;;;;;;4946025;29;20059;-75
2022/10/04 14:08:35;;;;;;;0.20;0.20;;;20.10;99.90;;;;;;4946636;29;20118;-77
2022/10/04 14:11:40;;;;;;;0.90;0.55;;;19.80;99.90;;;;;;4946757;29;20062;-76
2022/10/04 14:14:25;;;;;;;0.13;0.13;;;19.70;99.90;;;;;;4946402;29;20082;-75
2022/10/04 14:17:22;;;;;;;0.10;0.10;;;20.10;99.90;;;;;;4945972;29;20061;-75
2022/10/04 14:19:57;;;;;;;0.73;0.57;;;20.20;99.90;;;;;;4944969;29;20506;-76
2022/10/04 14:22:35;;;;;;;0.35;0.30;;;20.00;99.90;;;;;;4945139;29;20098;-76
2022/10/04 14:25:30;;;;;;;0.38;0.38;;;19.90;99.90;;;;;;4944918;29;20541;-78